Time,TemperatureF,DewpointF,PressureIn,WindDirection,WindDirectionDegrees,WindSpeedMPH,WindSpeedGustMPH,Humidity,HourlyPrecipIn,Conditions,Clouds,dailyrainin,SolarRadiationWatts/m^2,SoftwareType,DateUTC
2013-04-11 00:22:00,40.0,39.0,-100.00,NNE,33,0.0,7.0,97,0.00,,,0.22,0.000000,,2013-04-11 07:22:00,
2013-04-11 00:32:00,40.0,39.0,-100.00,NNE,33,0.0,7.0,97,0.00,,,0.22,0.000000,,2013-04-11 07:32:00,
2013-04-11 00:42:00,40.0,39.0,-100.00,NNE,33,0.0,7.0,97,0.00,,,0.22,0.000000,,2013-04-11 07:42:00,
2013-04-11 01:22:00,39.0,38.0,-100.00,NNE,18,0.0,3.0,97,0.00,,,0.22,0.000000,,2013-04-11 08:22:00,
2013-04-11 01:32:00,39.0,38.0,-100.00,NNE,18,0.0,3.0,97,0.00,,,0.22,0.000000,,2013-04-11 08:32:00,
2013-04-11 01:42:00,39.0,38.0,-100.00,NNE,18,0.0,3.0,97,0.00,,,0.22,0.000000,,2013-04-11 08:42:00,
2013-04-11 01:51:00,39.0,38.0,-100.00,NNE,18,0.0,3.0,97,0.00,,,0.22,0.000000,,2013-04-11 08:51:00,
2013-04-11 01:52:00,39.0,38.0,-100.00,NNE,17,1.0,3.0,98,0.00,,,0.22,0.000000,,2013-04-11 08:52:00,
2013-04-11 02:22:00,39.0,38.0,-100.00,NNE,17,1.0,3.0,98,0.00,,,0.22,0.000000,,2013-04-11 09:22:00,
2013-04-11 02:33:00,39.0,38.0,-100.00,NNE,17,1.0,3.0,98,0.00,,,0.22,0.000000,,2013-04-11 09:33:00,
2013-04-11 02:42:00,39.0,38.0,-100.00,NNE,17,1.0,3.0,98,0.00,,,0.22,0.000000,,2013-04-11 09:42:00,
2013-04-11 02:52:00,38.0,37.0,-100.00,NE,35,0.0,4.0,98,0.00,,,0.22,0.000000,,2013-04-11 09:52:00,
2013-04-11 03:23:00,38.0,37.0,-100.00,NE,35,0.0,4.0,98,0.00,,,0.22,0.000000,,2013-04-11 10:23:00,
2013-04-11 03:32:00,38.0,37.0,-100.00,NE,35,0.0,4.0,98,0.00,,,0.22,0.000000,,2013-04-11 10:32:00,
2013-04-11 03:42:00,38.0,37.0,-100.00,NE,35,0.0,4.0,98,0.00,,,0.22,0.000000,,2013-04-11 10:42:00,
2013-04-11 03:52:00,37.0,36.0,-100.00,East,101,0.0,1.0,98,0.00,,,0.22,0.000000,,2013-04-11 10:52:00,
2013-04-11 04:22:00,37.0,36.0,-100.00,East,101,0.0,1.0,98,0.00,,,0.22,0.000000,,2013-04-11 11:22:00,
2013-04-11 04:32:00,37.0,36.0,-100.00,East,101,0.0,1.0,98,0.00,,,0.22,0.000000,,2013-04-11 11:32:00,
2013-04-11 04:42:00,37.0,36.0,-100.00,East,101,0.0,1.0,98,0.00,,,0.22,0.000000,,2013-04-11 11:42:00,
2013-04-11 04:52:00,35.0,34.0,-100.00,NNE,13,0.0,3.0,97,0.00,,,-99.99,0.000000,,2013-04-11 11:52:00,
2013-04-11 05:22:00,35.0,34.0,-100.00,NNE,13,0.0,3.0,97,0.00,,,-99.99,0.000000,,2013-04-11 12:22:00,
2013-04-11 05:32:00,35.0,34.0,-100.00,NNE,13,0.0,3.0,97,0.00,,,-99.99,0.000000,,2013-04-11 12:32:00,
2013-04-11 05:42:00,35.0,34.0,-100.00,NNE,13,0.0,3.0,97,0.00,,,-99.99,0.000000,,2013-04-11 12:42:00,
2013-04-11 05:52:00,33.0,32.0,-100.00,NNE,33,1.0,4.0,98,0.00,,,0.22,0.000000,,2013-04-11 12:52:00,
2013-04-11 06:22:00,33.0,32.0,-100.00,NNE,33,1.0,4.0,98,0.00,,,0.22,0.000000,,2013-04-11 13:22:00,
2013-04-11 06:32:00,33.0,32.0,-100.00,NNE,33,1.0,4.0,98,0.00,,,0.22,0.000000,,2013-04-11 13:32:00,
2013-04-11 06:42:00,33.0,32.0,-100.00,NNE,33,1.0,4.0,98,0.00,,,0.22,0.000000,,2013-04-11 13:42:00,
2013-04-11 06:52:00,34.0,34.0,-100.00,NE,46,0.0,2.0,98,0.00,,,0.22,5.000000,,2013-04-11 13:52:00,
2013-04-11 07:22:00,34.0,34.0,-100.00,NE,46,0.0,2.0,98,0.00,,,0.22,5.000000,,2013-04-11 14:22:00,
2013-04-11 07:32:00,34.0,34.0,-100.00,NE,46,0.0,2.0,98,0.00,,,0.22,5.000000,,2013-04-11 14:32:00,
2013-04-11 07:42:00,34.0,34.0,-100.00,NE,46,0.0,2.0,98,0.00,,,0.22,5.000000,,2013-04-11 14:42:00,
2013-04-11 09:52:00,41.0,36.0,-100.00,South,183,0.0,2.0,82,-99.99,,,0.22,146.000000,,2013-04-11 16:52:00,
2013-04-11 10:23:00,41.0,36.0,-100.00,South,183,0.0,2.0,82,-99.99,,,0.22,146.000000,,2013-04-11 17:23:00,
2013-04-11 10:32:00,41.0,36.0,-100.00,South,183,0.0,2.0,82,-99.99,,,0.22,146.000000,,2013-04-11 17:32:00,
2013-04-11 10:42:00,41.0,36.0,-100.00,South,183,0.0,2.0,82,-99.99,,,0.22,146.000000,,2013-04-11 17:42:00,
2013-04-11 10:52:00,41.0,34.0,-100.00,SSE,164,2.0,5.0,77,0.00,,,0.22,149.000000,,2013-04-11 17:52:00,
2013-04-11 11:13:00,41.0,34.0,-100.00,SSE,164,2.0,5.0,77,0.00,,,0.22,149.000000,,2013-04-11 18:13:00,
2013-04-11 11:22:00,41.0,34.0,-100.00,SSE,164,2.0,5.0,77,0.00,,,0.22,149.000000,,2013-04-11 18:22:00,
2013-04-11 11:32:00,41.0,34.0,-100.00,SSE,164,2.0,5.0,77,0.00,,,0.22,149.000000,,2013-04-11 18:32:00,
2013-04-11 11:42:00,41.0,34.0,-100.00,SSE,164,2.0,5.0,77,0.00,,,0.22,149.000000,,2013-04-11 18:42:00,
2013-04-11 11:52:00,42.0,32.0,-100.00,SE,135,2.0,6.0,67,0.00,,,0.22,161.000000,,2013-04-11 18:52:00,
2013-04-11 12:22:00,42.0,32.0,-100.00,SE,135,2.0,6.0,67,0.00,,,0.22,161.000000,,2013-04-11 19:22:00,
2013-04-11 12:32:00,42.0,32.0,-100.00,SE,135,2.0,6.0,67,0.00,,,0.22,161.000000,,2013-04-11 19:32:00,
2013-04-11 12:42:00,42.0,32.0,-100.00,SE,135,2.0,6.0,67,0.00,,,0.22,161.000000,,2013-04-11 19:42:00,
2013-04-11 12:52:00,45.0,32.0,-100.00,NNE,21,4.0,13.0,59,0.00,,,0.22,294.000000,,2013-04-11 19:52:00,
2013-04-11 13:13:00,45.0,32.0,-100.00,NNE,21,4.0,13.0,59,0.00,,,0.22,294.000000,,2013-04-11 20:13:00,
2013-04-11 13:22:00,45.0,32.0,-100.00,NNE,21,4.0,13.0,59,0.00,,,0.22,294.000000,,2013-04-11 20:22:00,
2013-04-11 13:33:00,45.0,32.0,-100.00,NNE,21,4.0,13.0,59,0.00,,,0.22,294.000000,,2013-04-11 20:33:00,
2013-04-11 13:42:00,45.0,32.0,-100.00,NNE,21,4.0,13.0,59,0.00,,,0.22,294.000000,,2013-04-11 20:42:00,
2013-04-11 13:52:00,46.0,31.0,-100.00,SSE,163,2.0,9.0,56,0.00,,,0.22,362.000000,,2013-04-11 20:52:00,
2013-04-11 14:12:00,46.0,31.0,-100.00,SSE,163,2.0,9.0,56,0.00,,,0.22,362.000000,,2013-04-11 21:12:00,
2013-04-11 14:22:00,46.0,31.0,-100.00,SSE,163,2.0,9.0,56,0.00,,,0.22,362.000000,,2013-04-11 21:22:00,
2013-04-11 14:33:00,46.0,31.0,-100.00,SSE,163,2.0,9.0,56,0.00,,,0.22,362.000000,,2013-04-11 21:33:00,
2013-04-11 14:42:00,46.0,31.0,-100.00,SSE,163,2.0,9.0,56,0.00,,,0.22,362.000000,,2013-04-11 21:42:00,
2013-04-11 14:52:00,48.0,31.0,-100.00,NE,49,2.0,9.0,52,0.00,,,0.20,423.000000,,2013-04-11 21:52:00,
2013-04-11 15:13:00,48.0,31.0,-100.00,NE,49,2.0,9.0,52,0.00,,,0.20,423.000000,,2013-04-11 22:13:00,
2013-04-11 15:23:00,48.0,31.0,-100.00,NE,49,2.0,9.0,52,0.00,,,0.20,423.000000,,2013-04-11 22:23:00,
2013-04-11 15:32:00,48.0,31.0,-100.00,NE,49,2.0,9.0,52,0.00,,,0.20,423.000000,,2013-04-11 22:32:00,
2013-04-11 15:43:00,48.0,31.0,-100.00,NE,49,2.0,9.0,52,0.00,,,0.20,423.000000,,2013-04-11 22:43:00,
2013-04-11 15:52:00,46.0,29.0,-100.00,East,100,3.0,13.0,51,0.00,,,0.06,470.000000,,2013-04-11 22:52:00,
2013-04-11 16:22:00,46.0,29.0,-100.00,East,100,3.0,13.0,51,0.00,,,0.06,470.000000,,2013-04-11 23:22:00,
2013-04-11 16:32:00,46.0,29.0,-100.00,East,100,3.0,13.0,51,0.00,,,0.06,470.000000,,2013-04-11 23:32:00,
2013-04-11 16:42:00,46.0,29.0,-100.00,East,100,3.0,13.0,51,0.00,,,0.06,470.000000,,2013-04-11 23:42:00,
2013-04-11 16:52:00,46.0,27.0,-100.00,NE,48,3.0,9.0,47,0.00,,,0.04,199.000000,,2013-04-11 23:52:00,
2013-04-11 17:12:00,46.0,27.0,-100.00,NE,48,3.0,9.0,47,0.00,,,0.04,199.000000,,2013-04-12 00:12:00,
2013-04-11 17:22:00,46.0,27.0,-100.00,NE,48,3.0,9.0,47,0.00,,,0.04,199.000000,,2013-04-12 00:22:00,
2013-04-11 17:32:00,46.0,27.0,-100.00,NE,48,3.0,9.0,47,0.00,,,0.04,199.000000,,2013-04-12 00:32:00,
2013-04-11 17:42:00,46.0,27.0,-100.00,NE,48,3.0,9.0,47,0.00,,,0.04,199.000000,,2013-04-12 00:42:00,
2013-04-11 17:52:00,44.0,32.0,-100.00,ENE,65,1.0,6.0,63,0.00,,,-99.99,71.000000,,2013-04-12 00:52:00,
2013-04-11 18:22:00,44.0,32.0,-100.00,ENE,65,1.0,6.0,63,0.00,,,-99.99,71.000000,,2013-04-12 01:22:00,
2013-04-11 18:32:00,44.0,32.0,-100.00,ENE,65,1.0,6.0,63,0.00,,,-99.99,71.000000,,2013-04-12 01:32:00,
2013-04-11 18:42:00,44.0,32.0,-100.00,ENE,65,1.0,6.0,63,0.00,,,-99.99,71.000000,,2013-04-12 01:42:00,
2013-04-11 18:52:00,41.0,35.0,-100.00,North,4,0.0,1.0,80,0.00,,,0.03,26.000000,,2013-04-12 01:52:00,
2013-04-11 19:22:00,41.0,35.0,-100.00,North,4,0.0,1.0,80,0.00,,,0.03,26.000000,,2013-04-12 02:22:00,
2013-04-11 19:32:00,41.0,35.0,-100.00,North,4,0.0,1.0,80,0.00,,,0.03,26.000000,,2013-04-12 02:32:00,
2013-04-11 19:42:00,41.0,35.0,-100.00,North,4,0.0,1.0,80,0.00,,,0.03,26.000000,,2013-04-12 02:42:00,
2013-04-11 19:52:00,39.0,36.0,-100.00,NNE,19,0.0,2.0,88,0.00,,,0.01,7.000000,,2013-04-12 02:52:00,
2013-04-11 20:22:00,39.0,36.0,-100.00,NNE,19,0.0,2.0,88,0.00,,,0.01,7.000000,,2013-04-12 03:22:00,
2013-04-11 20:33:00,39.0,36.0,-100.00,NNE,19,0.0,2.0,88,0.00,,,0.01,7.000000,,2013-04-12 03:33:00,
2013-04-11 20:43:00,39.0,36.0,-100.00,NNE,19,0.0,2.0,88,0.00,,,0.01,7.000000,,2013-04-12 03:43:00,
2013-04-11 20:52:00,36.0,34.0,-100.00,NNE,30,0.0,2.0,92,0.00,,,0.00,0.000000,,2013-04-12 03:52:00,
2013-04-11 21:22:00,36.0,34.0,-100.00,NNE,30,0.0,2.0,92,0.00,,,0.00,0.000000,,2013-04-12 04:22:00,
2013-04-11 21:33:00,36.0,34.0,-100.00,NNE,30,0.0,2.0,92,0.00,,,0.00,0.000000,,2013-04-12 04:33:00,
2013-04-11 21:43:00,36.0,34.0,-100.00,NNE,30,0.0,2.0,92,0.00,,,0.00,0.000000,,2013-04-12 04:43:00,
2013-04-11 21:52:00,33.0,32.0,-100.00,NNE,27,0.0,2.0,95,0.00,,,0.00,0.000000,,2013-04-12 04:52:00,
2013-04-11 22:12:00,33.0,32.0,-100.00,NNE,27,0.0,2.0,95,0.00,,,0.00,0.000000,,2013-04-12 05:12:00,
2013-04-11 22:22:00,33.0,32.0,-100.00,NNE,27,0.0,2.0,95,0.00,,,0.00,0.000000,,2013-04-12 05:22:00,
2013-04-11 22:32:00,33.0,32.0,-100.00,NNE,27,0.0,2.0,95,0.00,,,0.00,0.000000,,2013-04-12 05:32:00,
2013-04-11 22:42:00,33.0,32.0,-100.00,NNE,27,0.0,2.0,95,0.00,,,0.00,0.000000,,2013-04-12 05:42:00,
2013-04-11 22:52:00,31.0,30.0,-100.00,ENE,60,0.0,2.0,96,0.00,,,0.00,0.000000,,2013-04-12 05:52:00,
2013-04-11 23:12:00,31.0,30.0,-100.00,ENE,60,0.0,2.0,96,0.00,,,0.00,0.000000,,2013-04-12 06:12:00,
2013-04-11 23:22:00,31.0,30.0,-100.00,ENE,60,0.0,2.0,96,0.00,,,0.00,0.000000,,2013-04-12 06:22:00,
2013-04-11 23:32:00,31.0,30.0,-100.00,ENE,60,0.0,2.0,96,0.00,,,0.00,0.000000,,2013-04-12 06:32:00,
2013-04-11 23:42:00,31.0,30.0,-100.00,ENE,60,0.0,2.0,96,0.00,,,0.00,0.000000,,2013-04-12 06:42:00,
2013-04-11 23:52:00,30.0,29.0,-100.00,NNE,22,0.0,1.0,96,0.00,,,0.00,0.000000,,2013-04-12 06:52:00,